Huvudsida
METAR-TAF:

METAR-TAF

Flygplatser :

Funafuti, Tuvalu

latitud: 08-31S, longitud: 179-13E, höjd: 1 m

Aktuellt väderrapport

Denna rapport gjordes för 23 minuter sedan, klockan 11:00 UTC
Vind 6 kt från syd/sydost
Temperatur 28°C
Fuktighet 84%
Tryck 1011 hPa
Sikt 10 km eller mer
Spridda moln på en höjd av 1700 ft, Högtornande cumulus.

METAR: NGFU 191100Z 15006KT 9999 SCT017TCU 28/25 Q1011

Tid: 23:23 (11:23 UTC)

Väderprognos

Denna rapport gjordes för 6 timmar och 1 minuter sedan, klockan 05:22 UTC
Prognos gäller från 19 kl. 06 UTC till 20 kl. 06 UTC
Vind 7 kt från sydost
Sikt 10 km eller mer
Spridda moln på en höjd av 1900 ft

TAF: NGFU 190522Z 1906/2006 13007KT 9999 SCT019

Aktuella väderrapporter och prognoser från 4000 flygplatser (METAR- och TAF-rapporter).

De tillgängliga stationerna syns som gula och röda prickar på kartan.

För musen över prickarna för att se namnen på stationerna.

Klicka sedan för att få väderrapporter och prognoser.

För att ändra kartan: Klicka på de gröna knapparna med ett svart kors på för att zooma in; den gröna knappen med ett streck på för att zooma ut; eller på de gröna pilarna för angränsande kartor.


METAR-TAF: